createdAt,value
2022-07-29T00:00:05.779Z,20.33
2022-07-29T00:01:05.742Z,20.35
2022-07-29T00:02:05.703Z,20.35
2022-07-29T00:03:05.736Z,20.30
2022-07-29T00:04:05.699Z,20.31
2022-07-29T00:05:05.608Z,20.27
2022-07-29T00:06:05.560Z,20.17
2022-07-29T00:07:05.525Z,20.23
2022-07-29T00:08:09.350Z,20.30
2022-07-29T00:09:05.450Z,20.27
2022-07-29T00:10:05.412Z,20.30
2022-07-29T00:11:05.387Z,20.23
2022-07-29T00:12:05.344Z,20.19
2022-07-29T00:13:05.305Z,20.30
2022-07-29T00:14:05.264Z,20.15
2022-07-29T00:15:05.231Z,20.23
2022-07-29T00:16:05.374Z,20.13
2022-07-29T00:17:05.156Z,20.17
2022-07-29T00:18:05.173Z,20.10
2022-07-29T00:19:05.085Z,20.12
2022-07-29T00:20:05.050Z,20.19
2022-07-29T00:21:05.012Z,20.10
2022-07-29T00:22:04.983Z,20.25
2022-07-29T00:23:04.939Z,20.17
2022-07-29T00:24:04.906Z,20.15
2022-07-29T00:25:04.866Z,20.16
2022-07-29T00:26:04.829Z,20.23
2022-07-29T00:27:04.793Z,20.10
2022-07-29T00:28:04.765Z,20.17
2022-07-29T00:29:33.057Z,20.13
2022-07-29T00:30:04.682Z,20.10
2022-07-29T00:31:04.682Z,20.15
2022-07-29T00:32:04.686Z,20.13
2022-07-29T00:33:08.951Z,20.10
2022-07-29T00:34:04.547Z,20.07
2022-07-29T00:35:04.499Z,20.04
2022-07-29T00:36:04.461Z,20.00
2022-07-29T00:37:04.426Z,20.01
2022-07-29T00:38:04.396Z,20.04
2022-07-29T00:39:04.355Z,20.01
2022-07-29T00:40:04.327Z,20.00
2022-07-29T00:41:04.293Z,20.02
2022-07-29T00:42:04.261Z,20.00
2022-07-29T00:43:04.207Z,20.02
2022-07-29T00:44:04.171Z,19.92
2022-07-29T00:45:04.136Z,19.92
2022-07-29T00:46:04.096Z,20.00
2022-07-29T00:47:04.173Z,19.89
2022-07-29T00:48:04.023Z,19.85
2022-07-29T00:49:04.068Z,20.00
2022-07-29T00:50:03.953Z,19.89
2022-07-29T00:51:03.914Z,19.98
2022-07-29T00:52:03.880Z,19.97
2022-07-29T00:53:03.848Z,19.95
2022-07-29T00:54:03.812Z,19.95
2022-07-29T00:55:08.247Z,20.00
2022-07-29T00:56:03.733Z,19.94
2022-07-29T00:57:03.693Z,19.98
2022-07-29T00:58:03.657Z,19.89
2022-07-29T00:59:03.639Z,19.83
2022-07-29T01:00:03.585Z,19.94
2022-07-29T01:01:03.617Z,19.83
2022-07-29T01:02:03.615Z,19.85
2022-07-29T01:03:03.475Z,19.86
2022-07-29T01:04:03.439Z,19.78
2022-07-29T01:05:03.415Z,19.82
2022-07-29T01:06:03.363Z,19.82
2022-07-29T01:07:03.329Z,19.78
2022-07-29T01:08:03.290Z,19.75
2022-07-29T01:09:03.254Z,19.75
2022-07-29T01:10:03.217Z,19.85
2022-07-29T01:11:03.195Z,19.80
2022-07-29T01:12:03.144Z,19.78
2022-07-29T01:13:03.109Z,19.71
2022-07-29T01:14:03.073Z,19.68
2022-07-29T01:15:03.034Z,19.80
2022-07-29T01:16:03.062Z,19.78
2022-07-29T01:17:02.961Z,19.78
2022-07-29T01:18:02.921Z,19.76
2022-07-29T01:19:02.897Z,19.83
2022-07-29T01:20:02.856Z,19.76
2022-07-29T01:21:02.828Z,19.80
2022-07-29T01:22:02.779Z,19.86
2022-07-29T01:23:02.740Z,19.83
2022-07-29T01:24:02.717Z,19.86
2022-07-29T01:25:02.676Z,19.76
2022-07-29T01:26:02.637Z,19.70
2022-07-29T01:27:02.606Z,19.72
2022-07-29T01:28:02.560Z,19.76
2022-07-29T01:29:07.428Z,19.70
2022-07-29T01:30:02.505Z,19.71
2022-07-29T01:31:02.468Z,19.68
2022-07-29T01:32:02.439Z,19.76
2022-07-29T01:33:02.382Z,19.58
2022-07-29T01:34:02.339Z,19.58
2022-07-29T01:35:02.305Z,19.55
2022-07-29T01:36:02.280Z,19.52
2022-07-29T01:37:02.227Z,19.60
2022-07-29T01:38:02.195Z,19.65
2022-07-29T01:39:02.157Z,19.60
2022-07-29T01:40:02.126Z,19.45
2022-07-29T01:41:02.105Z,19.42
2022-07-29T01:42:02.044Z,19.49
2022-07-29T01:43:02.011Z,19.50
2022-07-29T01:44:01.977Z,19.52
2022-07-29T01:45:01.946Z,19.46
2022-07-29T01:46:01.901Z,19.55
2022-07-29T01:47:01.948Z,19.52
2022-07-29T01:48:01.826Z,19.49
2022-07-29T01:49:01.840Z,19.49
2022-07-29T01:50:01.755Z,19.42
2022-07-29T01:51:01.733Z,19.47
2022-07-29T01:52:01.677Z,19.43
2022-07-29T01:53:01.643Z,19.42
2022-07-29T01:54:01.612Z,19.46
2022-07-29T01:55:01.571Z,19.47
2022-07-29T01:56:01.535Z,19.49
2022-07-29T01:57:01.507Z,19.46
2022-07-29T01:58:01.460Z,19.34
2022-07-29T01:59:01.433Z,19.40
2022-07-29T02:00:01.386Z,19.35
2022-07-29T02:01:01.351Z,19.32
2022-07-29T02:02:01.361Z,19.28
2022-07-29T02:03:01.291Z,19.12
2022-07-29T02:04:01.242Z,19.20
2022-07-29T02:05:01.260Z,19.15
2022-07-29T02:06:01.167Z,19.06
2022-07-29T02:07:01.127Z,19.10
2022-07-29T02:08:01.094Z,19.02
2022-07-29T02:09:01.069Z,18.89
2022-07-29T02:10:01.023Z,18.93
2022-07-29T02:11:00.983Z,18.71
2022-07-29T02:12:00.946Z,18.72
2022-07-29T02:13:00.909Z,18.69
2022-07-29T02:14:00.871Z,18.74
2022-07-29T02:15:00.858Z,18.71
2022-07-29T02:16:00.844Z,18.65
2022-07-29T02:17:00.763Z,18.66
2022-07-29T02:18:00.729Z,18.62
2022-07-29T02:19:00.690Z,18.62
2022-07-29T02:20:00.651Z,18.53
2022-07-29T02:21:00.630Z,18.62
2022-07-29T02:22:00.579Z,18.60
2022-07-29T02:23:00.545Z,18.62
2022-07-29T02:24:00.508Z,18.64
2022-07-29T02:25:00.892Z,18.68
2022-07-29T02:26:00.432Z,18.69
2022-07-29T02:27:00.409Z,18.65
2022-07-29T02:28:00.361Z,18.65
2022-07-29T02:29:00.320Z,18.71
2022-07-29T02:30:00.285Z,18.53
2022-07-29T02:31:00.282Z,18.49
2022-07-29T02:32:00.220Z,18.50
2022-07-29T02:33:00.172Z,18.47
2022-07-29T02:34:00.136Z,18.49
2022-07-29T02:35:00.110Z,18.46
2022-07-29T02:36:00.069Z,18.35
2022-07-29T02:37:00.024Z,18.38
2022-07-29T02:38:00.017Z,18.36
2022-07-29T02:38:59.953Z,18.35
2022-07-29T02:39:59.918Z,18.36
2022-07-29T02:40:59.875Z,18.34
2022-07-29T02:41:59.840Z,18.39
2022-07-29T02:42:59.804Z,18.35
2022-07-29T02:43:59.781Z,18.36
2022-07-29T02:44:59.730Z,18.41
2022-07-29T02:45:59.760Z,18.50
2022-07-29T02:46:59.737Z,18.51
2022-07-29T02:47:59.624Z,18.62
2022-07-29T02:48:59.675Z,18.57
2022-07-29T02:50:00.656Z,18.66
2022-07-29T02:50:59.507Z,18.60
2022-07-29T02:51:59.473Z,18.75
2022-07-29T02:52:59.441Z,18.71
2022-07-29T02:53:59.404Z,18.75
2022-07-29T02:54:59.372Z,18.72
2022-07-29T02:55:59.324Z,18.76
2022-07-29T02:56:59.292Z,18.75
2022-07-29T02:57:59.249Z,18.82
2022-07-29T02:58:59.213Z,18.75
2022-07-29T02:59:59.176Z,18.71
2022-07-29T03:00:59.148Z,18.72
2022-07-29T03:01:59.126Z,18.64
2022-07-29T03:02:59.064Z,18.75
2022-07-29T03:03:59.025Z,18.75
2022-07-29T03:04:59.015Z,18.74
2022-07-29T03:05:58.958Z,18.68
2022-07-29T03:06:58.928Z,18.65
2022-07-29T03:07:58.882Z,18.68
2022-07-29T03:09:13.256Z,18.64
2022-07-29T03:09:58.804Z,18.72
2022-07-29T03:10:58.767Z,18.74
2022-07-29T03:11:58.745Z,18.69
2022-07-29T03:12:59.078Z,18.74
2022-07-29T03:13:58.656Z,18.64
2022-07-29T03:14:58.620Z,18.71
2022-07-29T03:15:58.662Z,18.74
2022-07-29T03:16:58.542Z,18.74
2022-07-29T03:17:58.518Z,18.74
2022-07-29T03:18:58.471Z,18.72
2022-07-29T03:19:58.434Z,18.66
2022-07-29T03:20:58.421Z,18.72
2022-07-29T03:21:58.361Z,18.78
2022-07-29T03:22:58.330Z,18.78
2022-07-29T03:23:58.286Z,18.79
2022-07-29T03:24:58.245Z,18.75
2022-07-29T03:25:58.217Z,18.75
2022-07-29T03:26:58.173Z,18.74
2022-07-29T03:27:59.030Z,18.79
2022-07-29T03:28:58.108Z,18.69
2022-07-29T03:29:58.063Z,18.68
2022-07-29T03:30:58.058Z,18.68
2022-07-29T03:31:57.991Z,18.69
2022-07-29T03:32:58.124Z,18.69
2022-07-29T03:33:57.915Z,18.74
2022-07-29T03:34:57.888Z,18.71
2022-07-29T03:35:57.844Z,18.86
2022-07-29T03:36:57.804Z,18.82
2022-07-29T03:37:57.767Z,18.76
2022-07-29T03:38:57.729Z,18.89
2022-07-29T03:39:57.694Z,18.74
2022-07-29T03:40:57.672Z,18.86
2022-07-29T03:41:57.626Z,18.68
2022-07-29T03:42:57.585Z,18.35
2022-07-29T03:43:57.547Z,18.10
2022-07-29T03:44:57.505Z,17.74
2022-07-29T03:45:57.519Z,17.46
2022-07-29T03:46:57.444Z,17.17
2022-07-29T03:48:00.662Z,17.02
2022-07-29T03:48:57.651Z,16.87
2022-07-29T03:49:57.323Z,16.84
2022-07-29T03:50:57.280Z,16.67
2022-07-29T03:51:57.246Z,16.57
2022-07-29T03:52:57.222Z,16.50
2022-07-29T03:53:57.171Z,16.44
2022-07-29T03:54:57.134Z,16.32
2022-07-29T03:55:57.096Z,16.16
2022-07-29T03:56:57.057Z,16.14
2022-07-29T03:57:57.017Z,16.13
2022-07-29T03:58:56.995Z,16.14
2022-07-29T03:59:56.959Z,16.08
2022-07-29T04:00:56.905Z,16.01
2022-07-29T04:01:56.891Z,16.03
2022-07-29T04:02:56.923Z,15.92
2022-07-29T04:03:56.863Z,15.95
2022-07-29T04:04:56.763Z,16.04
2022-07-29T04:05:56.717Z,15.96
2022-07-29T04:06:56.677Z,16.01
2022-07-29T04:07:56.639Z,15.98
2022-07-29T04:08:56.599Z,16.03
2022-07-29T04:09:56.578Z,16.03
2022-07-29T04:10:56.523Z,15.99
2022-07-29T04:12:02.220Z,15.98
2022-07-29T04:12:56.447Z,15.96
2022-07-29T04:13:56.415Z,15.99
2022-07-29T04:14:56.371Z,16.07
2022-07-29T04:15:56.439Z,16.18
2022-07-29T04:16:56.302Z,16.23
2022-07-29T04:17:56.261Z,16.27
2022-07-29T04:18:56.220Z,16.26
2022-07-29T04:19:56.182Z,16.27
2022-07-29T04:20:56.141Z,16.29
2022-07-29T04:21:56.119Z,16.30
2022-07-29T04:22:56.067Z,16.33
2022-07-29T04:23:56.032Z,16.27
2022-07-29T04:24:59.103Z,16.23
2022-07-29T04:25:55.951Z,16.26
2022-07-29T04:26:55.928Z,16.34
2022-07-29T04:27:55.881Z,16.48
2022-07-29T04:28:55.834Z,16.51
2022-07-29T04:29:56.333Z,16.51
2022-07-29T04:30:55.812Z,16.54
2022-07-29T04:31:55.722Z,16.54
2022-07-29T04:32:55.694Z,16.50
2022-07-29T04:33:55.654Z,16.55
2022-07-29T04:34:55.607Z,16.59
2022-07-29T04:35:55.571Z,16.63
2022-07-29T04:36:55.535Z,16.55
2022-07-29T04:37:55.493Z,16.62
2022-07-29T04:38:55.464Z,16.65
2022-07-29T04:39:55.445Z,16.62
2022-07-29T04:40:55.379Z,16.52
2022-07-29T04:41:56.414Z,16.65
2022-07-29T04:42:55.300Z,16.72
2022-07-29T04:43:55.985Z,16.67
2022-07-29T04:44:55.235Z,16.65
2022-07-29T04:45:56.106Z,16.72
2022-07-29T04:46:55.161Z,16.62
2022-07-29T04:47:55.121Z,16.57
2022-07-29T04:48:55.136Z,16.45
2022-07-29T04:49:55.036Z,16.37
2022-07-29T04:50:55.017Z,16.22
2022-07-29T04:51:54.965Z,15.98
2022-07-29T04:52:54.939Z,15.92
2022-07-29T04:53:54.881Z,15.78
2022-07-29T04:54:54.856Z,15.76
2022-07-29T04:55:54.807Z,15.73
2022-07-29T04:56:54.766Z,15.62
2022-07-29T04:57:54.727Z,15.52
2022-07-29T04:58:54.693Z,15.49
2022-07-29T04:59:54.652Z,15.46
2022-07-29T05:00:54.633Z,15.40
2022-07-29T05:01:54.624Z,15.41
2022-07-29T05:02:54.635Z,15.35
2022-07-29T05:03:59.874Z,15.28
2022-07-29T05:04:54.458Z,15.23
2022-07-29T05:05:54.422Z,15.27
2022-07-29T05:06:54.394Z,15.27
2022-07-29T05:07:54.347Z,15.25
2022-07-29T05:08:54.304Z,15.30
2022-07-29T05:09:54.266Z,15.34
2022-07-29T05:10:54.229Z,15.31
2022-07-29T05:11:54.196Z,15.31
2022-07-29T05:12:54.162Z,15.13
2022-07-29T05:13:54.125Z,15.07
2022-07-29T05:14:54.074Z,15.19
2022-07-29T05:15:54.107Z,15.18
2022-07-29T05:16:53.999Z,15.16
2022-07-29T05:17:53.959Z,15.12
2022-07-29T05:18:53.930Z,15.07
2022-07-29T05:19:53.884Z,15.07
2022-07-29T05:20:53.853Z,15.04
2022-07-29T05:21:53.803Z,15.19
2022-07-29T05:22:53.766Z,15.15
2022-07-29T05:23:53.729Z,15.19
2022-07-29T05:24:53.693Z,15.22
2022-07-29T05:25:53.651Z,15.19
2022-07-29T05:26:53.625Z,15.34
2022-07-29T05:27:53.575Z,15.38
2022-07-29T05:28:53.536Z,15.35
2022-07-29T05:29:53.502Z,15.33
2022-07-29T05:30:53.492Z,15.30
2022-07-29T05:31:53.421Z,15.48
2022-07-29T05:32:53.392Z,15.43
2022-07-29T05:33:53.346Z,15.53
2022-07-29T05:34:53.305Z,15.49
2022-07-29T05:35:55.309Z,15.51
2022-07-29T05:36:53.227Z,15.62
2022-07-29T05:37:53.190Z,15.60
2022-07-29T05:38:53.179Z,15.51
2022-07-29T05:39:56.877Z,15.52
2022-07-29T05:40:53.073Z,15.53
2022-07-29T05:41:53.039Z,15.64
2022-07-29T05:42:53.003Z,15.68
2022-07-29T05:43:52.963Z,15.53
2022-07-29T05:44:52.938Z,15.67
2022-07-29T05:45:52.930Z,15.66
2022-07-29T05:46:52.847Z,15.76
2022-07-29T05:47:52.809Z,15.74
2022-07-29T05:48:52.812Z,15.67
2022-07-29T05:49:52.733Z,15.80
2022-07-29T05:50:52.710Z,15.68
2022-07-29T05:51:52.657Z,15.80
2022-07-29T05:52:52.623Z,15.80
2022-07-29T05:53:52.581Z,15.76
2022-07-29T05:54:52.542Z,15.88
2022-07-29T05:55:52.505Z,15.86
2022-07-29T05:56:52.475Z,15.88
2022-07-29T05:57:52.428Z,15.88
2022-07-29T05:58:52.392Z,15.99
2022-07-29T05:59:52.352Z,15.98
2022-07-29T06:00:52.323Z,16.16
2022-07-29T06:01:52.342Z,16.22
2022-07-29T06:02:52.239Z,16.29
2022-07-29T06:03:52.200Z,16.40
2022-07-29T06:04:52.197Z,16.42
2022-07-29T06:05:52.127Z,16.37
2022-07-29T06:06:52.090Z,16.44
2022-07-29T06:07:52.080Z,16.52
2022-07-29T06:08:52.017Z,16.63
2022-07-29T06:09:51.976Z,16.66
2022-07-29T06:10:51.938Z,16.78
2022-07-29T06:11:51.897Z,16.78
2022-07-29T06:12:51.861Z,16.78
2022-07-29T06:13:51.831Z,16.73
2022-07-29T06:14:54.211Z,16.87
2022-07-29T06:15:51.802Z,16.77
2022-07-29T06:16:51.741Z,16.87
2022-07-29T06:17:59.099Z,16.77
2022-07-29T06:18:51.645Z,16.88
2022-07-29T06:19:51.597Z,16.95
2022-07-29T06:20:51.561Z,16.95
2022-07-29T06:21:51.522Z,16.90
2022-07-29T06:22:51.489Z,17.05
2022-07-29T06:23:51.451Z,17.17
2022-07-29T06:24:51.423Z,17.24
2022-07-29T06:25:51.374Z,17.32
2022-07-29T06:26:51.340Z,17.42
2022-07-29T06:27:51.298Z,17.45
2022-07-29T06:28:51.267Z,17.57
2022-07-29T06:29:51.225Z,17.55
2022-07-29T06:30:51.267Z,17.58
2022-07-29T06:31:51.152Z,17.58
2022-07-29T06:32:51.112Z,17.63
2022-07-29T06:33:51.084Z,17.68
2022-07-29T06:34:51.042Z,17.53
2022-07-29T06:35:53.306Z,17.58
2022-07-29T06:36:50.978Z,17.55
2022-07-29T06:37:50.928Z,17.55
2022-07-29T06:38:51.510Z,17.60
2022-07-29T06:39:50.855Z,17.63
2022-07-29T06:40:50.820Z,17.51
2022-07-29T06:41:50.779Z,17.40
2022-07-29T06:42:50.757Z,17.43
2022-07-29T06:43:54.394Z,17.28
2022-07-29T06:44:50.671Z,17.28
2022-07-29T06:45:50.661Z,17.36
2022-07-29T06:46:50.598Z,17.24
2022-07-29T06:47:50.572Z,17.32
2022-07-29T06:48:50.592Z,17.32
2022-07-29T06:49:50.482Z,17.33
2022-07-29T06:50:50.450Z,17.30
2022-07-29T06:51:50.408Z,17.35
2022-07-29T06:52:50.374Z,17.30
2022-07-29T06:53:59.794Z,17.40
2022-07-29T06:54:50.297Z,17.38
2022-07-29T06:55:50.261Z,17.40
2022-07-29T06:56:50.225Z,17.45
2022-07-29T06:57:50.186Z,17.32
2022-07-29T06:58:50.153Z,17.39
2022-07-29T06:59:50.130Z,17.10
2022-07-29T07:00:50.138Z,17.21
2022-07-29T07:01:50.096Z,17.24
2022-07-29T07:02:50.074Z,17.25
2022-07-29T07:03:50.160Z,17.24
2022-07-29T07:04:49.928Z,17.32
2022-07-29T07:05:49.919Z,17.36
2022-07-29T07:06:49.859Z,17.42
2022-07-29T07:07:49.828Z,17.32
2022-07-29T07:08:49.780Z,17.38
2022-07-29T07:09:49.742Z,17.39
2022-07-29T07:10:49.706Z,17.43
2022-07-29T07:11:50.250Z,17.39
2022-07-29T07:12:49.635Z,17.39
2022-07-29T07:13:49.617Z,17.38
2022-07-29T07:14:49.558Z,17.51
2022-07-29T07:15:49.530Z,17.46
2022-07-29T07:16:49.548Z,17.57
2022-07-29T07:17:49.447Z,17.57
2022-07-29T07:18:49.413Z,17.58
2022-07-29T07:19:49.386Z,17.65
2022-07-29T07:20:49.339Z,17.77
2022-07-29T07:21:49.307Z,17.62
2022-07-29T07:22:49.265Z,17.71
2022-07-29T07:23:49.225Z,17.68
2022-07-29T07:24:49.188Z,17.71
2022-07-29T07:25:49.163Z,17.65
2022-07-29T07:26:49.133Z,17.73
2022-07-29T07:27:49.082Z,17.70
2022-07-29T07:28:49.042Z,17.66
2022-07-29T07:29:49.007Z,17.58
2022-07-29T07:30:48.972Z,17.45
2022-07-29T07:31:48.995Z,17.54
2022-07-29T07:32:48.909Z,17.54
2022-07-29T07:33:48.859Z,17.58
2022-07-29T07:34:48.823Z,17.58
2022-07-29T07:35:48.790Z,17.60
2022-07-29T07:36:48.771Z,17.60
2022-07-29T07:37:48.713Z,17.58
2022-07-29T07:38:48.689Z,17.46
2022-07-29T07:39:48.638Z,17.38
2022-07-29T07:40:48.600Z,17.43
2022-07-29T07:41:48.564Z,17.42
2022-07-29T07:42:48.527Z,17.38
2022-07-29T07:43:48.492Z,17.32
2022-07-29T07:45:12.110Z,17.32
2022-07-29T07:45:48.444Z,17.40
2022-07-29T07:46:48.383Z,17.36
2022-07-29T07:47:48.343Z,17.42
2022-07-29T07:48:48.342Z,17.27
2022-07-29T07:49:48.272Z,17.20
2022-07-29T07:50:48.246Z,17.27
2022-07-29T07:51:50.705Z,17.09
2022-07-29T07:52:48.162Z,17.14
2022-07-29T07:53:48.123Z,17.09
2022-07-29T07:54:48.087Z,17.18
2022-07-29T07:56:09.407Z,17.20
2022-07-29T07:56:48.027Z,17.28
2022-07-29T07:57:47.978Z,17.25
2022-07-29T07:58:47.948Z,17.30
2022-07-29T07:59:47.896Z,17.32
2022-07-29T08:00:47.879Z,17.36
2022-07-29T08:01:55.723Z,17.45
2022-07-29T08:02:47.859Z,17.36
2022-07-29T08:03:47.747Z,17.32
2022-07-29T08:04:47.723Z,17.22
2022-07-29T08:05:47.680Z,17.20
2022-07-29T08:06:47.637Z,17.30
2022-07-29T08:07:47.627Z,17.28
2022-07-29T08:08:47.570Z,17.15
2022-07-29T08:09:47.527Z,17.22
2022-07-29T08:10:47.502Z,17.24
2022-07-29T08:11:52.239Z,17.25
2022-07-29T08:12:47.430Z,17.09
2022-07-29T08:13:47.377Z,17.15
2022-07-29T08:14:47.340Z,17.12
2022-07-29T08:15:47.325Z,17.14
2022-07-29T08:16:47.327Z,17.10
2022-07-29T08:17:47.229Z,17.10
2022-07-29T08:18:47.191Z,17.02
2022-07-29T08:19:47.158Z,17.05
2022-07-29T08:20:47.122Z,17.09
2022-07-29T08:21:47.091Z,17.17
2022-07-29T08:22:47.048Z,17.12
2022-07-29T08:23:50.566Z,17.10
2022-07-29T08:24:46.967Z,17.17
2022-07-29T08:25:46.927Z,17.15
2022-07-29T08:26:46.894Z,17.09
2022-07-29T08:27:46.867Z,17.14
2022-07-29T08:28:47.062Z,17.14
2022-07-29T08:29:46.917Z,17.09
2022-07-29T08:30:46.747Z,17.17
2022-07-29T08:31:46.758Z,17.07
2022-07-29T08:32:55.236Z,17.05
2022-07-29T08:33:46.649Z,17.03
2022-07-29T08:34:46.595Z,16.90
2022-07-29T08:35:46.576Z,16.91
2022-07-29T08:36:51.434Z,16.95
2022-07-29T08:37:46.481Z,17.05
2022-07-29T08:38:46.459Z,17.06
2022-07-29T08:39:46.408Z,17.06
2022-07-29T08:40:46.369Z,17.17
2022-07-29T08:41:57.447Z,17.27
2022-07-29T08:42:46.298Z,17.33
2022-07-29T08:43:46.257Z,17.36
2022-07-29T08:44:46.233Z,17.38
2022-07-29T08:45:48.119Z,17.38
2022-07-29T08:46:46.146Z,17.40
2022-07-29T08:47:46.110Z,17.47
2022-07-29T08:48:46.103Z,17.45
2022-07-29T08:49:46.034Z,17.53
2022-07-29T08:50:46.560Z,17.58
2022-07-29T08:51:49.403Z,17.57
2022-07-29T08:52:45.923Z,17.60
2022-07-29T08:53:45.884Z,17.66
2022-07-29T08:54:45.849Z,17.84
2022-07-29T08:55:45.812Z,17.76
2022-07-29T08:56:45.778Z,17.70
2022-07-29T08:57:51.023Z,17.68
2022-07-29T08:58:48.749Z,17.77
2022-07-29T08:59:45.664Z,17.83
2022-07-29T09:00:45.720Z,17.91
2022-07-29T09:01:45.668Z,17.87
2022-07-29T09:02:46.651Z,17.99
2022-07-29T09:03:45.574Z,17.99
2022-07-29T09:04:45.477Z,17.99
2022-07-29T09:05:48.106Z,18.02
2022-07-29T09:06:45.407Z,18.05
2022-07-29T09:07:45.368Z,18.11
2022-07-29T09:08:55.185Z,18.02
2022-07-29T09:09:45.296Z,18.10
2022-07-29T09:10:45.301Z,18.14
2022-07-29T09:11:45.217Z,18.20
2022-07-29T09:12:45.182Z,18.20
2022-07-29T09:13:45.145Z,18.26
2022-07-29T09:14:45.123Z,18.25
2022-07-29T09:15:45.072Z,18.35
2022-07-29T09:16:53.276Z,18.41
2022-07-29T09:17:44.997Z,18.42
2022-07-29T09:18:44.963Z,18.53
2022-07-29T09:19:45.495Z,18.50
2022-07-29T09:20:44.899Z,18.53
2022-07-29T09:21:44.849Z,18.54
2022-07-29T09:22:44.824Z,18.51
2022-07-29T09:23:44.793Z,18.56
2022-07-29T09:24:44.744Z,18.60
2022-07-29T09:25:44.702Z,18.59
2022-07-29T09:26:44.668Z,18.71
2022-07-29T09:27:44.630Z,18.76
2022-07-29T09:28:44.604Z,18.74
2022-07-29T09:29:44.582Z,18.78
2022-07-29T09:30:44.522Z,18.93
2022-07-29T09:31:44.508Z,19.07
2022-07-29T09:32:44.448Z,19.21
2022-07-29T09:33:44.422Z,19.38
2022-07-29T09:34:44.377Z,19.45
2022-07-29T09:35:44.338Z,19.43
2022-07-29T09:36:44.305Z,19.40
2022-07-29T09:37:44.269Z,19.49
2022-07-29T09:38:44.231Z,19.42
2022-07-29T09:39:44.207Z,19.47
2022-07-29T09:40:44.159Z,19.45
2022-07-29T09:41:44.124Z,19.40
2022-07-29T09:42:44.091Z,19.58
2022-07-29T09:43:44.053Z,19.43
2022-07-29T09:44:44.017Z,19.58
2022-07-29T09:45:43.988Z,19.55
2022-07-29T09:46:43.989Z,19.67
2022-07-29T09:47:43.913Z,19.60
2022-07-29T09:48:43.909Z,19.60
2022-07-29T09:49:43.837Z,19.57
2022-07-29T09:50:43.802Z,19.55
2022-07-29T09:51:43.777Z,19.47
2022-07-29T09:52:43.742Z,19.61
2022-07-29T09:53:43.693Z,19.47
2022-07-29T09:54:43.658Z,19.55
2022-07-29T09:55:43.623Z,19.58
2022-07-29T09:56:43.599Z,19.57
2022-07-29T09:57:43.553Z,19.40
2022-07-29T09:58:43.515Z,19.45
2022-07-29T09:59:50.073Z,19.43
2022-07-29T10:00:43.484Z,19.43
2022-07-29T10:01:43.406Z,19.39
2022-07-29T10:02:43.384Z,19.40
2022-07-29T10:03:43.385Z,19.38
2022-07-29T10:04:43.324Z,19.31
2022-07-29T10:05:43.264Z,19.46
2022-07-29T10:06:43.229Z,19.34
2022-07-29T10:07:43.192Z,19.40
2022-07-29T10:08:43.167Z,19.25
2022-07-29T10:09:43.121Z,19.52
2022-07-29T10:10:43.088Z,19.42
2022-07-29T10:11:48.137Z,19.53
2022-07-29T10:12:43.010Z,19.42
2022-07-29T10:13:42.978Z,19.50
2022-07-29T10:14:42.957Z,19.49
2022-07-29T10:15:42.914Z,19.57
2022-07-29T10:16:42.951Z,19.45
2022-07-29T10:17:42.832Z,19.55
2022-07-29T10:18:42.805Z,19.64
2022-07-29T10:19:42.770Z,19.58
2022-07-29T10:20:42.766Z,19.68
2022-07-29T10:21:42.704Z,19.61
2022-07-29T10:22:53.199Z,19.60
2022-07-29T10:23:46.561Z,19.68
2022-07-29T10:24:42.581Z,19.65
2022-07-29T10:25:46.170Z,19.67
2022-07-29T10:26:42.520Z,19.67
2022-07-29T10:27:42.478Z,19.76
2022-07-29T10:28:42.437Z,19.71
2022-07-29T10:29:42.402Z,19.79
2022-07-29T10:30:42.364Z,19.82
2022-07-29T10:31:42.408Z,19.89
2022-07-29T10:32:42.292Z,19.94
2022-07-29T10:33:42.259Z,20.02
2022-07-29T10:34:42.220Z,20.08
2022-07-29T10:35:42.186Z,20.04
2022-07-29T10:36:43.307Z,20.10
2022-07-29T10:37:45.795Z,20.12
2022-07-29T10:38:45.640Z,20.19
2022-07-29T10:39:45.128Z,20.22
2022-07-29T10:40:42.007Z,20.34
2022-07-29T10:41:43.822Z,20.38
2022-07-29T10:42:41.936Z,20.38
2022-07-29T10:43:42.450Z,20.42
2022-07-29T10:44:41.872Z,20.44
2022-07-29T10:45:41.842Z,20.46
2022-07-29T10:46:41.899Z,20.53
2022-07-29T10:47:41.760Z,20.57
2022-07-29T10:48:41.727Z,20.60
2022-07-29T10:49:41.687Z,20.63
2022-07-29T10:50:41.664Z,20.44
2022-07-29T10:51:41.617Z,20.57
2022-07-29T10:52:41.578Z,20.69
2022-07-29T10:53:41.547Z,20.76
2022-07-29T10:54:43.908Z,20.79
2022-07-29T10:55:43.127Z,20.88
2022-07-29T10:56:41.450Z,20.90
2022-07-29T10:57:53.463Z,20.94
2022-07-29T10:58:41.367Z,21.05
2022-07-29T10:59:41.336Z,21.19
2022-07-29T11:00:41.300Z,21.15
2022-07-29T11:01:41.320Z,21.24
2022-07-29T11:02:43.502Z,21.36
2022-07-29T11:03:41.230Z,21.42
2022-07-29T11:04:41.157Z,21.49
2022-07-29T11:05:41.124Z,21.48
2022-07-29T11:06:42.782Z,21.52
2022-07-29T11:07:45.718Z,21.56
2022-07-29T11:08:41.015Z,21.61
2022-07-29T11:09:40.981Z,21.70
2022-07-29T11:10:40.951Z,21.86
2022-07-29T11:11:40.912Z,22.09
2022-07-29T11:12:40.888Z,22.21
2022-07-29T11:13:41.445Z,22.46
2022-07-29T11:14:40.808Z,22.48
2022-07-29T11:15:40.789Z,22.67
2022-07-29T11:16:40.738Z,22.99
2022-07-29T11:17:51.916Z,22.97
2022-07-29T11:18:40.674Z,23.01
2022-07-29T11:19:42.654Z,23.16
2022-07-29T11:20:40.617Z,23.19
2022-07-29T11:21:54.124Z,23.32
2022-07-29T11:22:43.043Z,23.25
2022-07-29T11:23:42.876Z,23.44
2022-07-29T11:24:50.449Z,23.47
2022-07-29T11:25:50.266Z,23.42
2022-07-29T11:26:40.406Z,23.52
2022-07-29T11:27:40.417Z,23.64
2022-07-29T11:28:40.341Z,23.59
2022-07-29T11:29:40.302Z,23.78
2022-07-29T11:30:40.268Z,23.84
2022-07-29T11:31:40.255Z,23.57
2022-07-29T11:32:40.200Z,23.67
2022-07-29T11:33:55.956Z,23.82
2022-07-29T11:34:40.134Z,23.87
2022-07-29T11:35:40.108Z,24.09
2022-07-29T11:36:40.070Z,23.90
2022-07-29T11:37:42.537Z,23.81
2022-07-29T11:38:41.621Z,23.92
2022-07-29T11:39:39.974Z,24.09
2022-07-29T11:40:39.943Z,24.34
2022-07-29T11:41:39.910Z,24.45
2022-07-29T11:42:41.901Z,24.63
2022-07-29T11:43:39.844Z,24.74
2022-07-29T11:44:39.816Z,24.97
2022-07-29T11:45:43.113Z,25.14
2022-07-29T11:46:39.746Z,25.35
2022-07-29T11:47:39.922Z,25.69
2022-07-29T11:48:39.710Z,25.60
2022-07-29T11:49:39.651Z,25.66
2022-07-29T11:50:44.405Z,25.81
2022-07-29T11:52:50.106Z,25.86
2022-07-29T11:53:39.535Z,25.94
2022-07-29T11:54:58.150Z,26.11
2022-07-29T11:55:51.417Z,26.13
2022-07-29T11:56:39.431Z,26.24
2022-07-29T11:57:39.523Z,26.04
2022-07-29T11:58:39.375Z,25.93
2022-07-29T11:59:39.351Z,26.03
2022-07-29T12:00:39.308Z,26.23
2022-07-29T12:01:39.276Z,25.98
2022-07-29T12:02:39.519Z,26.11
2022-07-29T12:03:39.269Z,26.27
2022-07-29T12:04:39.185Z,26.23
2022-07-29T12:05:39.153Z,26.27
2022-07-29T12:06:39.125Z,26.16
2022-07-29T12:07:39.284Z,26.49
2022-07-29T12:08:39.060Z,26.41
2022-07-29T12:09:40.166Z,26.83
2022-07-29T12:10:39.006Z,26.72
2022-07-29T12:11:38.972Z,26.60
2022-07-29T12:12:38.940Z,26.66
2022-07-29T12:13:38.910Z,26.71
2022-07-29T12:14:38.894Z,26.81
2022-07-29T12:15:46.310Z,26.97
2022-07-29T12:16:38.854Z,26.97
2022-07-29T12:17:38.800Z,26.87
2022-07-29T12:18:38.923Z,26.96
2022-07-29T12:19:38.743Z,26.87
2022-07-29T12:20:38.716Z,27.12
2022-07-29T12:21:38.675Z,27.24
2022-07-29T12:22:38.644Z,27.08
2022-07-29T12:23:38.617Z,26.91
2022-07-29T12:24:38.593Z,26.79
2022-07-29T12:25:38.557Z,26.71
2022-07-29T12:26:40.367Z,26.39
2022-07-29T12:27:40.329Z,26.38
2022-07-29T12:28:38.475Z,26.36
2022-07-29T12:29:38.444Z,26.41
2022-07-29T12:30:38.431Z,26.49
2022-07-29T12:31:42.179Z,26.44
2022-07-29T12:32:38.413Z,26.29
2022-07-29T12:33:38.328Z,26.23
2022-07-29T12:34:38.291Z,26.21
2022-07-29T12:35:38.259Z,26.16
2022-07-29T12:36:38.238Z,26.01
2022-07-29T12:37:40.971Z,25.90
2022-07-29T12:38:38.164Z,25.81
2022-07-29T12:39:38.136Z,25.91
2022-07-29T12:40:38.105Z,26.19
2022-07-29T12:41:38.071Z,26.36
2022-07-29T12:42:38.056Z,26.39
2022-07-29T12:43:38.011Z,26.69
2022-07-29T12:44:37.979Z,26.75
2022-07-29T12:45:37.950Z,26.76
2022-07-29T12:46:37.958Z,26.87
2022-07-29T12:47:37.888Z,26.93
2022-07-29T12:48:37.920Z,26.97
2022-07-29T12:49:37.970Z,26.91
2022-07-29T12:50:37.800Z,26.73
2022-07-29T12:51:37.769Z,26.66
2022-07-29T12:52:37.737Z,26.72